Aviation Weather Forecast

Aviation Weather Forecast (8)

Aviation weather forecast
 

Children categories

Pilot Briefing (3)
Pilot Briefing
STATION WIND VISIBILITY

PRESET WEATHER

LOWEST LAYER HIGHER LAYER TEMP QNH

Pilot Briefing

TIME:0000 AM HOURS LOCAL DATE: 00/09/2015 ISSUING OFFICER: MET ISSUE TIME:0000LCL

TARO              
MUNDA              
AUKI              
LATA S/CRUZ              
TINGOA              
HONIARA              
HENDERSON AIRPORT              

 

View items...

Aviation Weather Forecast provides the following reports.

  1. Pilot Briefing information
  2. Weather Reports
Last modified on Tuesday, 12 May 2015 10:01

NIL

 

 

 

 

Last modified on Saturday, 28 October 2017 20:21

      

Not Available

 

 

Last modified on Monday, 31 October 2016 16:34

FASO40 AGGG   
211750   AGGH
AREA FORECAST FOR SOLOMON ISLANDS VALID NOVEMBER 211900 TO 221000UTC 2017.

OVERVIEW: SCATTERED SHOWERS AND ISOLATED THUNDERSTORMS.
                
UPPER WINDS:  (SPEED IN KNOTS) 
                              FL020    VRB10
                              FL050    32010
                              FL070    32010
                              FL100    32010
                              FL140    30010
                              FL180    29010
         
CLOUD:  ISOL CB 1600/45000
                 SCT CU 1500/15000 BKN IN PRECIP
                 SCT SC 3000/6000 BKN IN PRECIP
                 BKN ACAS 10000/14000
               
SIG WX: TSRA, SHRA, TSSH

VIS: 25KM, 5000M IN SHRA/TSSH, 2000M IN TSRA

 

 

Last modified on Wednesday, 22 November 2017 04:53

FTSO31 AGGG 220450Z
TAF AGGH 220450Z 2206/2306 36010KT 9999 –SHRA FEW017 SCT028  
PROB40 INTER 2206/2209 5000 TSSH BKN016 FEW017CB
T 31 28 26 25 Q 1003 1005 1006 1004=

TAF AGGM 220450Z 2206/2306 27008KT 9999 –SHRA FEW017 SCT028
PROB40 INTER 2206/2209 5000 SHDZ SCT016 BKN028
Q 1003 1005 1006 1004=

TAF AGGN 220450Z 2206/2306 23010KT 9999 –SHRA FEW017 SCT028
PROB40 INTER 2206/2209 5000 SHDZ SCT016 BKN028
Q 1003 1005 1006 1004=

 

 

Last modified on Wednesday, 22 November 2017 15:54

Weather Outlook

Support and Docs

Modern Design
Go to top